createdAt,value
2018-06-01T00:02:12.919Z,58.30
2018-06-01T00:07:15.397Z,58.40
2018-06-01T00:12:17.875Z,58.40
2018-06-01T00:17:20.368Z,58.40
2018-06-01T00:22:22.848Z,58.30
2018-06-01T00:27:25.333Z,58.40
2018-06-01T00:32:27.841Z,58.50
2018-06-01T00:37:30.325Z,58.50
2018-06-01T00:42:32.860Z,58.60
2018-06-01T00:47:35.297Z,58.80
2018-06-01T00:52:37.802Z,58.80
2018-06-01T00:57:40.292Z,58.90
2018-06-01T01:02:42.799Z,58.90
2018-06-01T01:07:45.288Z,59.00
2018-06-01T01:12:47.780Z,59.00
2018-06-01T01:17:50.301Z,58.90
2018-06-01T01:22:52.784Z,58.90
2018-06-01T01:27:55.264Z,58.90
2018-06-01T01:32:57.745Z,58.90
2018-06-01T01:38:00.253Z,58.90
2018-06-01T01:43:02.741Z,58.90
2018-06-01T01:48:05.224Z,58.90
2018-06-01T01:53:07.696Z,58.90
2018-06-01T01:58:10.181Z,58.90
2018-06-01T02:03:13.432Z,58.80
2018-06-01T02:08:15.943Z,58.80
2018-06-01T02:13:18.420Z,58.80
2018-06-01T02:18:20.900Z,58.80
2018-06-01T02:23:23.404Z,58.90
2018-06-01T02:28:25.892Z,58.90
2018-06-01T02:33:28.372Z,58.90
2018-06-01T02:38:30.852Z,58.90
2018-06-01T02:43:33.335Z,58.90
2018-06-01T02:48:36.605Z,58.90
2018-06-01T02:53:39.102Z,58.90
2018-06-01T02:58:41.579Z,59.20
2018-06-01T03:03:44.060Z,59.10
2018-06-01T03:08:46.553Z,59.20
2018-06-01T03:13:49.040Z,59.20
2018-06-01T03:18:51.524Z,59.10
2018-06-01T03:23:54.008Z,59.00
2018-06-01T03:28:56.488Z,59.00
2018-06-01T03:33:59.761Z,59.30
2018-06-01T03:39:02.244Z,59.30
2018-06-01T03:44:04.723Z,59.30
2018-06-01T03:49:07.216Z,59.20
2018-06-01T03:54:09.715Z,59.40
2018-06-01T03:59:12.196Z,59.40
2018-06-01T04:04:14.680Z,59.40
2018-06-01T04:09:17.166Z,59.40
2018-06-01T04:14:19.656Z,59.40
2018-06-01T04:19:22.148Z,59.60
2018-06-01T04:24:24.645Z,59.70
2018-06-01T04:29:27.990Z,59.60
2018-06-01T04:34:30.476Z,59.80
2018-06-01T04:39:32.964Z,59.90
2018-06-01T04:44:35.456Z,60.20
2018-06-01T04:49:37.952Z,60.30
2018-06-01T04:54:40.443Z,60.00
2018-06-01T04:59:42.960Z,60.10
2018-06-01T05:04:45.453Z,60.00
2018-06-01T05:09:47.958Z,60.00
2018-06-01T05:14:50.475Z,60.20
2018-06-01T05:19:53.740Z,60.30
2018-06-01T05:24:56.253Z,60.10
2018-06-01T05:29:58.744Z,60.60
2018-06-01T05:35:01.264Z,60.40
2018-06-01T05:40:04.525Z,60.60
2018-06-01T05:45:07.017Z,60.50
2018-06-01T05:50:10.319Z,60.30
2018-06-01T05:55:12.807Z,60.20
2018-06-01T06:00:15.327Z,59.90
2018-06-01T06:05:17.824Z,59.80
2018-06-01T06:10:20.321Z,59.90
2018-06-01T06:15:22.812Z,60.00
2018-06-01T06:20:25.711Z,59.90
2018-06-01T06:25:28.235Z,59.90
2018-06-01T06:30:30.709Z,59.90
2018-06-01T06:35:33.217Z,59.90
2018-06-01T06:40:35.709Z,59.90
2018-06-01T06:45:38.218Z,60.00
2018-06-01T06:50:41.490Z,60.50
2018-06-01T06:55:44.000Z,60.40
2018-06-01T07:00:46.498Z,60.70
2018-06-01T07:05:48.979Z,61.60
2018-06-01T07:10:51.468Z,61.60
2018-06-01T07:15:53.958Z,61.60
2018-06-01T07:20:56.453Z,61.50
2018-06-01T07:25:58.968Z,61.20
2018-06-01T07:31:02.446Z,60.70
2018-06-01T07:36:04.928Z,60.60
2018-06-01T07:41:07.416Z,60.50
2018-06-01T07:46:09.916Z,60.50
2018-06-01T07:51:12.416Z,60.60
2018-06-01T07:56:14.928Z,60.70
2018-06-01T08:01:17.444Z,60.40
2018-06-01T08:06:19.928Z,60.30
2018-06-01T08:11:22.447Z,60.40
2018-06-01T08:16:24.932Z,61.10
2018-06-01T08:21:28.186Z,60.40
2018-06-01T08:26:30.685Z,60.30
2018-06-01T08:31:33.175Z,60.30
2018-06-01T08:36:35.681Z,60.60
2018-06-01T08:41:38.178Z,60.60
2018-06-01T08:46:40.680Z,60.50
2018-06-01T08:51:43.163Z,60.30
2018-06-01T08:56:45.643Z,60.20
2018-06-01T09:01:48.136Z,60.20
2018-06-01T09:06:50.637Z,60.70
2018-06-01T09:11:53.182Z,61.10
2018-06-01T09:16:55.758Z,60.70
2018-06-01T09:21:59.026Z,60.70
2018-06-01T09:27:01.508Z,60.80
2018-06-01T09:32:03.997Z,60.60
2018-06-01T09:37:06.493Z,60.70
2018-06-01T09:42:08.998Z,60.90
2018-06-01T09:47:11.548Z,60.90
2018-06-01T09:52:14.808Z,61.00
2018-06-01T09:57:17.292Z,61.00
2018-06-01T10:02:19.777Z,60.60
2018-06-01T10:07:22.265Z,60.40
2018-06-01T10:12:24.763Z,60.80
2018-06-01T10:17:27.972Z,61.30
2018-06-01T10:22:30.460Z,61.50
2018-06-01T10:27:33.467Z,61.80
2018-06-01T10:32:35.964Z,62.70
2018-06-01T10:37:38.455Z,62.40
2018-06-01T10:42:40.964Z,61.90
2018-06-01T10:47:43.452Z,62.40
2018-06-01T10:52:45.949Z,62.80
2018-06-01T10:57:48.430Z,63.10
2018-06-01T11:02:50.920Z,63.70
2018-06-01T11:07:54.311Z,63.10
2018-06-01T11:12:56.807Z,64.10
2018-06-01T11:17:59.316Z,63.10
2018-06-01T11:23:01.816Z,63.40
2018-06-01T11:28:04.310Z,63.10
2018-06-01T11:33:06.808Z,63.40
2018-06-01T11:38:09.309Z,63.90
2018-06-01T11:43:11.800Z,64.00
2018-06-01T11:48:14.305Z,64.10
2018-06-01T11:53:16.807Z,64.10
2018-06-01T11:58:19.319Z,63.90
2018-06-01T12:03:22.568Z,64.60
2018-06-01T12:08:25.068Z,63.80
2018-06-01T12:13:27.556Z,63.70
2018-06-01T12:18:30.040Z,63.40
2018-06-01T12:23:32.536Z,63.60
2018-06-01T12:28:35.027Z,63.40
2018-06-01T12:33:37.523Z,63.00
2018-06-01T12:38:40.031Z,63.10
2018-06-01T12:43:42.532Z,62.70
2018-06-01T12:48:45.035Z,62.70
2018-06-01T12:53:47.532Z,62.10
2018-06-01T12:58:50.043Z,62.00
2018-06-01T13:03:53.344Z,59.80
2018-06-01T13:08:58.372Z,59.50
2018-06-01T13:14:00.856Z,59.50
2018-06-01T13:19:03.364Z,59.40
2018-06-01T13:24:05.860Z,59.30
2018-06-01T13:29:08.349Z,59.30
2018-06-01T13:34:10.866Z,59.30
2018-06-01T13:39:13.387Z,59.30
2018-06-01T13:44:16.641Z,59.20
2018-06-01T13:49:19.140Z,59.20
2018-06-01T13:54:21.690Z,59.30
2018-06-01T13:59:25.020Z,59.00
2018-06-01T14:04:27.509Z,59.00
2018-06-01T14:09:29.988Z,59.30
2018-06-01T14:14:33.265Z,60.20
2018-06-01T14:19:37.116Z,60.20
2018-06-01T14:24:40.367Z,60.40
2018-06-01T14:29:42.865Z,61.10
2018-06-01T14:34:45.355Z,61.20
2018-06-01T14:39:47.878Z,61.30
2018-06-01T14:44:50.364Z,61.00
2018-06-01T14:49:52.847Z,61.00
2018-06-01T16:19:28.277Z,65.40
2018-06-01T16:24:30.787Z,65.30
2018-06-01T16:29:34.044Z,63.60
2018-06-01T16:34:37.292Z,62.80
2018-06-01T16:39:39.775Z,63.60
2018-06-01T16:44:42.983Z,62.60
2018-06-01T16:49:45.491Z,62.50
2018-06-01T16:54:47.996Z,62.40
2018-06-01T16:59:50.480Z,62.30
2018-06-01T17:04:52.972Z,62.40
2018-06-01T17:09:55.473Z,62.90
2018-06-01T17:14:57.971Z,63.10
2018-06-01T17:20:00.451Z,63.00
2018-06-01T17:25:02.950Z,63.10
2018-06-01T17:30:05.445Z,63.30
2018-06-01T17:35:07.936Z,63.20
2018-06-01T17:40:10.431Z,63.80
2018-06-01T17:45:12.925Z,64.00
2018-06-01T17:50:15.408Z,64.30
2018-06-01T17:55:17.929Z,64.20
2018-06-01T18:00:20.421Z,64.10
2018-06-01T18:05:22.913Z,63.80
2018-06-01T18:10:25.406Z,63.90
2018-06-01T18:15:28.035Z,64.00
2018-06-01T18:20:31.304Z,64.00
2018-06-01T18:25:33.828Z,64.00
2018-06-01T18:30:36.312Z,64.10
2018-06-01T18:35:38.813Z,64.50
2018-06-01T18:40:41.295Z,64.10
2018-06-01T18:45:43.784Z,64.40
2018-06-01T18:50:46.276Z,64.30
2018-06-01T18:55:48.780Z,64.20
2018-06-01T19:00:51.264Z,64.20
2018-06-01T19:05:53.751Z,64.10
2018-06-01T19:10:56.250Z,64.40
2018-06-01T19:15:58.761Z,64.20
2018-06-01T19:21:01.263Z,64.20
2018-06-01T19:26:04.537Z,63.60
2018-06-01T19:31:07.062Z,64.10
2018-06-01T19:36:09.559Z,64.00
2018-06-01T19:41:12.825Z,63.80
2018-06-01T19:46:15.328Z,63.70
2018-06-01T19:51:17.827Z,63.80
2018-06-01T19:56:20.326Z,64.00
2018-06-01T20:01:22.819Z,64.40
2018-06-01T20:06:25.319Z,64.30
2018-06-01T20:11:27.827Z,64.20
2018-06-01T20:16:30.328Z,64.50
2018-06-01T20:21:32.850Z,64.60
2018-06-01T20:26:35.372Z,64.80
2018-06-01T20:31:37.868Z,64.70
2018-06-01T20:36:40.369Z,64.60
2018-06-01T20:41:42.883Z,64.80
2018-06-01T20:46:45.376Z,64.90
2018-06-01T20:51:47.893Z,64.80
2018-06-01T20:56:51.168Z,64.70
2018-06-01T21:01:53.680Z,64.60
2018-06-01T21:06:56.191Z,64.50
2018-06-01T21:11:59.460Z,64.50
2018-06-01T21:17:01.956Z,64.40
2018-06-01T21:22:04.481Z,64.30
2018-06-01T21:27:06.971Z,64.20
2018-06-01T21:32:09.466Z,64.20
2018-06-01T21:37:11.991Z,64.10
2018-06-01T21:42:14.496Z,64.00
2018-06-01T21:47:16.992Z,63.60
2018-06-01T21:52:19.489Z,63.50
2018-06-01T21:57:22.216Z,64.00
2018-06-01T22:02:24.713Z,64.00
2018-06-01T22:07:27.227Z,63.70
2018-06-01T22:12:30.487Z,64.90
2018-06-01T22:17:32.996Z,63.90
2018-06-01T22:22:35.497Z,63.70
2018-06-01T22:27:38.000Z,63.70
2018-06-01T22:32:40.500Z,63.90
2018-06-01T22:37:43.005Z,63.90
2018-06-01T22:42:45.535Z,63.80
2018-06-01T22:47:48.028Z,64.30
2018-06-01T22:52:50.549Z,63.80
2018-06-01T22:57:53.041Z,63.80
2018-06-01T23:02:55.561Z,63.60
2018-06-01T23:07:58.075Z,63.80
2018-06-01T23:13:00.576Z,63.90
2018-06-01T23:18:03.856Z,63.90
2018-06-01T23:23:06.370Z,63.80
2018-06-01T23:28:08.865Z,63.80
2018-06-01T23:33:12.141Z,64.00
2018-06-01T23:38:14.648Z,63.70
2018-06-01T23:43:17.148Z,63.80
2018-06-01T23:48:19.655Z,63.70
2018-06-01T23:53:22.184Z,63.60
2018-06-01T23:58:24.688Z,63.90
